createdAt,value
2022-09-10T00:00:00.816Z,985.6234
2022-09-10T00:01:00.983Z,985.7391
2022-09-10T00:02:01.185Z,985.6098
2022-09-10T00:03:01.293Z,985.5672
2022-09-10T00:04:00.400Z,985.5111
2022-09-10T00:05:00.612Z,985.8439
2022-09-10T00:06:00.729Z,985.7652
2022-09-10T00:07:00.835Z,985.7447
2022-09-10T00:08:00.990Z,985.6376
2022-09-10T00:09:01.140Z,985.7821
2022-09-10T00:10:00.279Z,985.7969
2022-09-10T00:11:00.436Z,985.7476
2022-09-10T00:12:00.607Z,985.7476
2022-09-10T00:13:00.723Z,985.6761
2022-09-10T00:14:00.874Z,985.7203
2022-09-10T00:15:01.018Z,985.7131
2022-09-10T00:16:01.207Z,985.6774
2022-09-10T00:17:00.329Z,985.7865
2022-09-10T00:18:00.471Z,985.6774
2022-09-10T00:19:00.611Z,985.7351
2022-09-10T00:20:00.748Z,985.693
2022-09-10T00:21:00.903Z,985.7865
2022-09-10T00:22:01.037Z,985.5995
2022-09-10T00:23:01.216Z,985.5923
2022-09-10T00:24:00.322Z,985.7079
2022-09-10T00:25:01.690Z,985.679
2022-09-10T00:26:00.629Z,985.7299
2022-09-10T00:27:00.781Z,985.7304
2022-09-10T00:28:00.938Z,985.7657
2022-09-10T00:29:01.077Z,985.5707
2022-09-10T00:30:01.218Z,985.6353
2022-09-10T00:31:00.418Z,985.693
2022-09-10T00:32:00.505Z,985.7508
2022-09-10T00:33:00.655Z,985.6998
2022-09-10T00:34:00.854Z,985.7929
2022-09-10T00:35:00.975Z,985.6774
2022-09-10T00:36:01.128Z,985.5775
2022-09-10T00:37:00.287Z,985.7219
2022-09-10T00:38:00.433Z,985.7219
2022-09-10T00:39:00.599Z,985.5995
2022-09-10T00:40:00.793Z,985.6862
2022-09-10T00:41:00.872Z,985.7219
2022-09-10T00:42:01.032Z,985.6774
2022-09-10T00:43:01.169Z,985.6862
2022-09-10T00:44:00.317Z,985.7657
2022-09-10T00:45:00.481Z,985.6658
2022-09-10T00:46:00.658Z,985.7304
2022-09-10T00:47:00.761Z,985.6658
2022-09-10T00:48:00.925Z,985.7657
2022-09-10T00:49:01.066Z,985.6212
2022-09-10T00:50:01.246Z,985.5775
2022-09-10T00:51:00.359Z,985.6064
2022-09-10T00:52:00.522Z,985.693
2022-09-10T00:53:00.659Z,985.8507
2022-09-10T00:54:00.813Z,985.7063
2022-09-10T00:55:00.993Z,985.5975
2022-09-10T00:56:01.117Z,985.5975
2022-09-10T00:57:00.265Z,985.6264
2022-09-10T00:58:00.424Z,985.7131
2022-09-10T00:59:00.567Z,985.756
2022-09-10T01:00:00.738Z,985.6774
2022-09-10T01:01:00.960Z,985.8086
2022-09-10T01:02:01.077Z,985.6284
2022-09-10T01:03:01.159Z,985.7299
2022-09-10T01:04:00.301Z,985.868
2022-09-10T01:05:00.467Z,985.7673
2022-09-10T01:06:00.607Z,985.6602
2022-09-10T01:07:00.752Z,985.6104
2022-09-10T01:08:00.924Z,985.6899
2022-09-10T01:09:01.041Z,985.5607
2022-09-10T01:10:01.184Z,985.7629
2022-09-10T01:11:00.328Z,985.5976
2022-09-10T01:12:00.468Z,985.5896
2022-09-10T01:13:00.624Z,985.5263
2022-09-10T01:14:00.768Z,985.5993
2022-09-10T01:15:00.912Z,985.5568
2022-09-10T01:16:01.103Z,985.6162
2022-09-10T01:17:01.224Z,985.6751
2022-09-10T01:18:00.353Z,985.546
2022-09-10T01:19:00.495Z,985.6194
2022-09-10T01:20:00.645Z,985.5328
2022-09-10T01:21:00.790Z,985.7926
2022-09-10T01:22:00.950Z,985.7497
2022-09-10T01:23:01.113Z,985.6856
2022-09-10T01:24:01.225Z,985.4407
2022-09-10T01:25:00.375Z,985.6784
2022-09-10T01:26:00.525Z,985.6355
2022-09-10T01:27:00.680Z,985.4335
2022-09-10T01:28:00.816Z,985.6355
2022-09-10T01:29:00.960Z,985.6724
2022-09-10T01:30:01.109Z,985.579
2022-09-10T01:32:00.378Z,985.4856
2022-09-10T01:33:00.513Z,985.5654
2022-09-10T01:34:00.678Z,985.6451
2022-09-10T01:35:00.810Z,985.4584
2022-09-10T01:36:00.955Z,985.6311
2022-09-10T01:37:01.111Z,985.5161
2022-09-10T01:38:01.256Z,985.6191
2022-09-10T01:39:00.415Z,985.505
2022-09-10T01:40:00.604Z,985.5274
2022-09-10T01:41:00.687Z,985.4201
2022-09-10T01:42:00.828Z,985.5134
2022-09-10T01:43:00.982Z,985.5066
2022-09-10T01:44:01.106Z,985.614
2022-09-10T01:45:00.262Z,985.4697
2022-09-10T01:46:00.433Z,985.6492
2022-09-10T01:47:00.553Z,985.5915
2022-09-10T01:48:00.696Z,985.5478
2022-09-10T01:49:00.857Z,985.446
2022-09-10T01:50:01.023Z,985.6191
2022-09-10T01:51:01.142Z,985.6315
2022-09-10T01:52:00.279Z,985.5534
2022-09-10T01:53:00.435Z,985.5823
2022-09-10T01:54:00.580Z,985.6604
2022-09-10T01:55:00.739Z,985.5738
2022-09-10T01:56:00.878Z,985.5738
2022-09-10T01:57:01.033Z,985.6451
2022-09-10T01:58:01.184Z,985.674
2022-09-10T01:59:00.332Z,985.6451
2022-09-10T02:00:00.490Z,985.5874
2022-09-10T02:01:00.637Z,985.6231
2022-09-10T02:02:00.802Z,985.6383
2022-09-10T02:03:00.913Z,985.6523
2022-09-10T02:04:01.054Z,985.674
2022-09-10T02:05:01.232Z,985.5586
2022-09-10T02:06:00.348Z,985.696
2022-09-10T02:07:00.504Z,985.6672
2022-09-10T02:08:00.647Z,985.472
2022-09-10T02:09:00.805Z,985.5586
2022-09-10T02:10:00.961Z,985.5297
2022-09-10T02:11:01.096Z,985.5738
2022-09-10T02:12:01.227Z,985.5738
2022-09-10T02:13:00.383Z,985.6027
2022-09-10T02:14:00.531Z,985.5738
2022-09-10T02:15:00.690Z,985.696
2022-09-10T02:16:00.883Z,985.4792
2022-09-10T02:17:00.967Z,985.6367
2022-09-10T02:18:01.119Z,985.7509
2022-09-10T02:19:00.257Z,985.6355
2022-09-10T02:20:00.416Z,985.6427
2022-09-10T02:21:00.554Z,985.5569
2022-09-10T02:22:00.713Z,985.5569
2022-09-10T02:23:00.858Z,985.6587
2022-09-10T02:24:00.997Z,985.6808
2022-09-10T02:25:01.163Z,985.601
2022-09-10T02:26:00.290Z,985.5433
2022-09-10T02:27:00.428Z,985.601
2022-09-10T02:28:00.574Z,985.6367
2022-09-10T02:29:00.721Z,985.6355
2022-09-10T02:30:00.874Z,985.4543
2022-09-10T02:31:01.013Z,985.5031
2022-09-10T02:32:01.151Z,985.704
2022-09-10T02:33:00.302Z,985.5087
2022-09-10T02:34:00.444Z,985.6242
2022-09-10T02:35:00.616Z,985.5528
2022-09-10T02:36:00.743Z,985.6174
2022-09-10T02:37:00.895Z,985.6972
2022-09-10T02:38:01.040Z,985.8263
2022-09-10T02:39:01.187Z,985.5528
2022-09-10T02:40:00.499Z,985.7397
2022-09-10T02:41:00.479Z,985.6531
2022-09-10T02:42:00.620Z,985.8263
2022-09-10T02:43:00.773Z,985.7108
2022-09-10T02:44:00.928Z,985.6242
2022-09-10T02:45:01.101Z,985.5087
2022-09-10T02:46:01.330Z,985.6671
2022-09-10T02:47:00.369Z,985.6671
2022-09-10T02:48:00.509Z,985.7028
2022-09-10T02:49:00.672Z,985.5364
2022-09-10T02:50:00.826Z,985.6582
2022-09-10T02:51:00.978Z,985.6434
2022-09-10T02:52:01.107Z,985.6582
2022-09-10T02:53:01.252Z,985.7232
2022-09-10T02:54:00.413Z,985.6582
2022-09-10T02:55:00.545Z,985.6871
2022-09-10T02:56:00.695Z,985.5652
2022-09-10T02:57:00.845Z,985.623
2022-09-10T02:58:00.987Z,985.7232
2022-09-10T02:59:01.164Z,985.5568
2022-09-10T03:00:00.293Z,985.8014
2022-09-10T03:01:00.499Z,985.5925
2022-09-10T03:02:00.638Z,985.6795
2022-09-10T03:03:03.078Z,985.6281
2022-09-10T03:04:00.908Z,985.7084
2022-09-10T03:05:01.139Z,985.6217
2022-09-10T03:06:01.186Z,985.5347
2022-09-10T03:07:00.327Z,985.5568
2022-09-10T03:08:00.465Z,985.7011
2022-09-10T03:09:00.653Z,985.73
2022-09-10T03:10:00.773Z,985.6723
2022-09-10T03:11:00.917Z,985.5857
2022-09-10T03:12:01.056Z,985.6294
2022-09-10T03:13:01.201Z,985.5568
2022-09-10T03:14:00.364Z,985.6859
2022-09-10T03:15:00.522Z,985.5568
2022-09-10T03:16:00.759Z,985.7797
2022-09-10T03:17:00.794Z,985.7131
2022-09-10T03:18:00.942Z,985.7051
2022-09-10T03:19:01.098Z,985.7051
2022-09-10T03:20:01.251Z,985.5318
2022-09-10T03:21:00.389Z,985.7051
2022-09-10T03:22:00.540Z,985.6762
2022-09-10T03:23:00.692Z,985.5896
2022-09-10T03:24:00.862Z,985.5318
2022-09-10T03:25:00.993Z,985.5964
2022-09-10T03:26:01.141Z,985.6185
2022-09-10T03:27:00.276Z,985.6032
2022-09-10T03:28:00.439Z,985.7629
2022-09-10T03:29:00.601Z,985.6185
2022-09-10T03:30:00.733Z,985.6393
2022-09-10T03:31:00.881Z,985.5743
2022-09-10T03:32:01.030Z,985.6321
2022-09-10T03:33:01.182Z,985.6899
2022-09-10T03:34:00.354Z,985.6253
2022-09-10T03:35:00.494Z,985.5318
2022-09-10T03:36:00.631Z,985.503
2022-09-10T03:37:00.781Z,985.6201
2022-09-10T03:38:00.924Z,985.6859
2022-09-10T03:39:01.098Z,985.5139
2022-09-10T03:40:01.322Z,985.6157
2022-09-10T03:41:00.356Z,985.6599
2022-09-10T03:42:00.530Z,985.7826
2022-09-10T03:43:00.660Z,985.6242
2022-09-10T03:44:00.814Z,985.6242
2022-09-10T03:45:00.958Z,985.5817
2022-09-10T03:46:01.155Z,985.7192
2022-09-10T03:47:01.275Z,985.4462
2022-09-10T03:48:00.391Z,985.6475
2022-09-10T03:49:00.544Z,985.7497
2022-09-10T03:50:00.696Z,985.7497
2022-09-10T03:51:00.851Z,985.6856
2022-09-10T03:52:01.014Z,985.8503
2022-09-10T03:53:01.162Z,985.714
2022-09-10T03:54:00.285Z,985.7926
2022-09-10T03:55:00.420Z,985.8924
2022-09-10T03:56:00.571Z,985.7192
2022-09-10T03:57:00.715Z,985.5516
2022-09-10T03:58:00.899Z,985.5568
2022-09-10T03:59:01.008Z,985.5925
2022-09-10T04:00:01.159Z,985.6281
2022-09-10T04:01:00.341Z,985.6558
2022-09-10T04:02:00.497Z,985.5607
2022-09-10T04:03:00.616Z,985.503
2022-09-10T04:04:00.778Z,985.5675
2022-09-10T04:05:00.890Z,985.5378
2022-09-10T04:06:01.037Z,985.5735
2022-09-10T04:07:01.193Z,985.5735
2022-09-10T04:08:00.330Z,985.6228
2022-09-10T04:09:00.502Z,985.5651
2022-09-10T04:10:00.621Z,985.5502
2022-09-10T04:11:00.779Z,985.4925
2022-09-10T04:12:00.929Z,985.6433
2022-09-10T04:13:01.068Z,985.4993
2022-09-10T04:14:01.250Z,985.5707
2022-09-10T04:15:00.375Z,985.5775
2022-09-10T04:16:00.525Z,985.6132
2022-09-10T04:17:01.651Z,985.5618
2022-09-10T04:18:00.819Z,985.5618
2022-09-10T04:19:00.987Z,985.6264
2022-09-10T04:20:01.133Z,985.6761
2022-09-10T04:22:00.365Z,985.8632
2022-09-10T04:23:00.513Z,985.6171
2022-09-10T04:24:00.724Z,985.6677
2022-09-10T04:25:00.829Z,985.7905
2022-09-10T04:26:00.961Z,985.7969
2022-09-10T04:27:01.108Z,985.6376
2022-09-10T04:28:01.243Z,985.7311
2022-09-10T04:29:00.397Z,985.5866
2022-09-10T04:30:00.564Z,985.6938
2022-09-10T04:31:00.683Z,985.7652
2022-09-10T04:32:00.899Z,985.7295
2022-09-10T04:33:00.984Z,985.7295
2022-09-10T04:34:01.137Z,985.8439
2022-09-10T04:35:00.301Z,985.7295
2022-09-10T04:36:00.410Z,985.7295
2022-09-10T04:37:00.569Z,985.7295
2022-09-10T04:38:00.738Z,985.7652
2022-09-10T04:39:00.892Z,985.8162
2022-09-10T04:40:01.214Z,985.7652
2022-09-10T04:41:01.194Z,985.7652
2022-09-10T04:42:00.329Z,985.7295
2022-09-10T04:43:00.482Z,985.8728
2022-09-10T04:44:00.626Z,985.8439
2022-09-10T04:45:00.793Z,985.9153
2022-09-10T04:46:00.982Z,985.5757
2022-09-10T04:47:01.070Z,985.5825
2022-09-10T04:48:06.196Z,985.6829
2022-09-10T04:49:00.367Z,985.7985
2022-09-10T04:50:00.531Z,985.727
2022-09-10T04:51:15.733Z,985.9583
2022-09-10T04:52:00.835Z,985.7917
2022-09-10T04:53:00.962Z,985.6403
2022-09-10T04:54:01.107Z,985.7628
2022-09-10T04:55:01.257Z,985.8563
2022-09-10T04:56:00.397Z,985.7254
2022-09-10T04:57:00.573Z,985.87
2022-09-10T04:58:00.692Z,985.5961
2022-09-10T04:59:00.826Z,985.8274
2022-09-10T05:00:00.973Z,985.8636
2022-09-10T05:01:01.147Z,985.8704
2022-09-10T05:02:00.300Z,985.8057
2022-09-10T05:03:00.413Z,985.8057
2022-09-10T05:04:00.572Z,985.7985
2022-09-10T05:05:00.708Z,985.654
2022-09-10T05:06:00.870Z,985.6612
2022-09-10T05:07:01.007Z,985.8057
2022-09-10T05:08:01.168Z,985.7102
2022-09-10T05:09:00.319Z,985.6812
2022-09-10T05:10:00.445Z,985.76
2022-09-10T05:11:00.606Z,985.7736
2022-09-10T05:12:00.742Z,985.6937
2022-09-10T05:13:00.890Z,985.7587
2022-09-10T05:14:01.069Z,985.6491
2022-09-10T05:15:01.180Z,985.7567
2022-09-10T05:16:00.331Z,985.7278
2022-09-10T05:17:00.465Z,985.8146
2022-09-10T05:18:00.602Z,985.878
2022-09-10T05:19:00.777Z,985.8198
2022-09-10T05:20:00.895Z,985.827
2022-09-10T05:21:01.036Z,985.8186
2022-09-10T05:22:01.182Z,985.8684
2022-09-10T05:23:00.328Z,985.9897
2022-09-10T05:24:00.495Z,985.7872
2022-09-10T05:25:00.616Z,985.7583
2022-09-10T05:26:00.757Z,985.823
2022-09-10T05:27:00.891Z,985.9524
2022-09-10T05:28:01.057Z,985.8218
2022-09-10T05:29:01.210Z,985.8945
2022-09-10T05:30:00.332Z,985.743
2022-09-10T05:31:00.513Z,985.9661
2022-09-10T05:32:00.647Z,985.8503
2022-09-10T05:33:00.806Z,985.8933
2022-09-10T05:34:00.968Z,985.7418
2022-09-10T05:35:01.103Z,985.9222
2022-09-10T05:36:01.248Z,985.9649
2022-09-10T05:37:00.397Z,985.8491
2022-09-10T05:38:00.555Z,985.9649
2022-09-10T05:39:00.713Z,985.8274
2022-09-10T05:40:00.927Z,985.6827
2022-09-10T05:41:00.991Z,985.7406
2022-09-10T05:42:01.140Z,985.747
2022-09-10T05:43:00.286Z,985.87
2022-09-10T05:44:00.437Z,985.7679
2022-09-10T05:45:00.611Z,985.9126
2022-09-10T05:46:00.891Z,985.7679
2022-09-10T05:47:00.885Z,985.7237
2022-09-10T05:48:01.038Z,985.7237
2022-09-10T05:49:01.177Z,985.7595
2022-09-10T05:50:00.347Z,985.8825
2022-09-10T05:51:00.474Z,985.8596
2022-09-10T05:52:00.614Z,985.8596
2022-09-10T05:53:00.767Z,985.8596
2022-09-10T05:54:00.906Z,985.671
2022-09-10T05:55:01.060Z,985.9026
2022-09-10T05:56:01.211Z,985.6846
2022-09-10T05:57:00.341Z,986.0099
2022-09-10T05:58:00.484Z,985.6545
2022-09-10T05:59:00.633Z,985.792
2022-09-10T06:00:00.779Z,985.6183
2022-09-10T06:01:00.950Z,985.6102
2022-09-10T06:02:01.189Z,985.7039
2022-09-10T06:03:01.428Z,985.755
2022-09-10T06:04:00.380Z,985.7329
2022-09-10T06:05:00.518Z,985.566
2022-09-10T06:06:00.682Z,985.675
2022-09-10T06:07:00.812Z,985.6239
2022-09-10T06:08:03.365Z,985.646
2022-09-10T06:09:01.108Z,985.8117
2022-09-10T06:10:01.269Z,985.6657
2022-09-10T06:11:00.409Z,985.6657
2022-09-10T06:13:00.772Z,985.6657
2022-09-10T06:14:00.862Z,985.7083
2022-09-10T06:15:01.014Z,985.7522
2022-09-10T06:16:01.142Z,985.5856
2022-09-10T06:17:00.285Z,985.6942
2022-09-10T06:18:00.438Z,985.94
2022-09-10T06:19:00.604Z,985.7522
2022-09-10T06:20:00.768Z,985.7952
2022-09-10T06:21:00.887Z,985.7083
2022-09-10T06:22:01.045Z,985.8161
2022-09-10T06:23:01.183Z,985.7509
2022-09-10T06:24:00.330Z,985.7292
2022-09-10T06:25:00.498Z,985.7204
2022-09-10T06:26:00.620Z,985.6407
2022-09-10T06:27:00.772Z,985.7618
2022-09-10T06:28:00.918Z,985.8048
2022-09-10T06:29:01.079Z,985.7469
2022-09-10T06:30:01.243Z,985.7091
2022-09-10T06:31:00.432Z,985.7227
2022-09-10T06:32:00.505Z,985.6994
2022-09-10T06:33:00.660Z,985.742
2022-09-10T06:34:00.800Z,985.705
2022-09-10T06:35:00.972Z,985.8266
2022-09-10T06:36:01.099Z,985.7468
2022-09-10T06:37:01.249Z,985.8253
2022-09-10T06:38:00.391Z,985.897
2022-09-10T06:39:00.544Z,985.6349
2022-09-10T06:40:00.761Z,985.6264
2022-09-10T06:41:00.843Z,985.661
2022-09-10T06:42:00.988Z,985.7601
2022-09-10T06:43:01.137Z,985.6356
2022-09-10T06:44:00.305Z,985.779
2022-09-10T06:45:00.456Z,985.6412
2022-09-10T06:46:00.689Z,985.6907
2022-09-10T06:47:39.325Z,985.6686
2022-09-10T06:49:01.118Z,985.721
2022-09-10T06:50:01.200Z,985.7073
2022-09-10T06:51:00.351Z,985.7431
2022-09-10T06:52:00.493Z,985.7653
2022-09-10T06:53:00.648Z,985.6493
2022-09-10T06:54:00.789Z,985.6424
2022-09-10T06:55:00.945Z,985.6203
2022-09-10T06:56:01.085Z,985.6493
2022-09-10T06:57:01.271Z,985.6493
2022-09-10T06:58:00.377Z,985.6561
2022-09-10T06:59:02.632Z,985.8068
2022-09-10T07:00:00.667Z,985.6686
2022-09-10T07:01:00.837Z,985.6746
2022-09-10T07:02:01.022Z,985.76
2022-09-10T07:03:01.129Z,985.6798
2022-09-10T07:04:01.253Z,985.6069
2022-09-10T07:05:00.400Z,985.7145
2022-09-10T07:06:00.561Z,985.7862
2022-09-10T07:07:00.723Z,985.633
2022-09-10T07:08:00.894Z,985.841
2022-09-10T07:09:01.017Z,985.7027
2022-09-10T07:10:01.157Z,986.0277
2022-09-10T07:11:00.312Z,985.91
2022-09-10T07:12:00.462Z,985.7995
2022-09-10T07:13:00.626Z,985.8346
2022-09-10T07:14:00.777Z,985.7765
2022-09-10T07:15:00.907Z,985.8354
2022-09-10T07:16:01.187Z,985.7567
2022-09-10T07:17:01.204Z,985.743
2022-09-10T07:18:00.352Z,986.1714
2022-09-10T07:19:00.523Z,985.8604
2022-09-10T07:20:00.650Z,985.956
2022-09-10T07:21:00.808Z,985.8769
2022-09-10T07:22:00.961Z,985.9201
2022-09-10T07:23:01.103Z,985.8023
2022-09-10T07:24:01.376Z,985.8011
2022-09-10T07:25:00.398Z,985.9019
2022-09-10T07:26:00.540Z,985.8717
2022-09-10T07:27:00.693Z,985.7539
2022-09-10T07:28:00.855Z,985.7458
2022-09-10T07:29:01.002Z,985.7446
2022-09-10T07:30:01.141Z,985.8023
2022-09-10T07:31:00.327Z,985.8023
2022-09-10T07:32:00.440Z,985.8083
2022-09-10T07:33:00.598Z,985.7498
2022-09-10T07:34:00.745Z,985.856
2022-09-10T07:35:00.907Z,985.9266
2022-09-10T07:36:01.043Z,985.9985
2022-09-10T07:37:01.189Z,985.8451
2022-09-10T07:38:00.348Z,985.8741
2022-09-10T07:39:00.492Z,985.9888
2022-09-10T07:40:00.670Z,985.8479
2022-09-10T07:41:00.797Z,986.0559
2022-09-10T07:42:00.929Z,985.8046
2022-09-10T07:43:01.084Z,985.8754
2022-09-10T07:44:01.228Z,985.9182
2022-09-10T07:45:00.403Z,985.896
2022-09-10T07:46:04.128Z,985.8378
2022-09-10T07:47:00.676Z,985.9085
2022-09-10T07:48:00.828Z,985.9
2022-09-10T07:49:00.993Z,985.957
2022-09-10T07:50:01.137Z,985.7884
2022-09-10T07:51:00.263Z,985.9308
2022-09-10T07:52:00.465Z,985.9017
2022-09-10T07:53:00.592Z,985.8742
2022-09-10T07:54:00.723Z,985.898
2022-09-10T07:55:00.854Z,985.8766
2022-09-10T07:56:01.047Z,985.9138
2022-09-10T07:57:01.160Z,985.9
2022-09-10T07:58:00.422Z,985.9085
2022-09-10T07:59:00.471Z,985.8155
2022-09-10T08:00:00.616Z,985.9028
2022-09-10T08:01:00.997Z,986.0055
2022-09-10T08:02:00.976Z,985.9336
2022-09-10T08:03:01.076Z,985.9045
2022-09-10T08:04:01.206Z,985.9336
2022-09-10T08:05:00.363Z,985.8754
2022-09-10T08:06:00.517Z,985.9626
2022-09-10T08:07:00.687Z,986.0637
2022-09-10T08:08:00.805Z,986.0192
2022-09-10T08:09:00.958Z,986.2064
2022-09-10T08:10:01.102Z,986.0387
2022-09-10T08:11:01.243Z,986.0969
2022-09-10T08:12:00.393Z,986.0747
2022-09-10T08:13:00.548Z,986.2049
2022-09-10T08:14:00.685Z,986.0237
2022-09-10T08:15:00.839Z,986.1191
2022-09-10T08:16:00.998Z,986.1345
2022-09-10T08:17:01.124Z,986.0843
2022-09-10T08:18:00.275Z,986.1801
2022-09-10T08:19:00.421Z,986.1663
2022-09-10T08:20:00.606Z,986.1304
2022-09-10T08:21:00.735Z,986.094
2022-09-10T08:22:00.864Z,986.2977
2022-09-10T08:23:01.011Z,986.2245
2022-09-10T08:24:01.157Z,986.2467
2022-09-10T08:25:00.335Z,986.1304
2022-09-10T08:26:00.459Z,986.2536
2022-09-10T08:27:00.589Z,986.2161
2022-09-10T08:28:00.749Z,986.2371
2022-09-10T08:29:00.896Z,986.2727
2022-09-10T08:30:01.059Z,986.2286
2022-09-10T08:31:01.229Z,986.3891
2022-09-10T08:32:00.315Z,986.4102
2022-09-10T08:33:00.471Z,986.316
2022-09-10T08:34:00.615Z,986.36
2022-09-10T08:35:00.769Z,986.2662
2022-09-10T08:36:00.893Z,986.3309
2022-09-10T08:37:01.048Z,986.3604
2022-09-10T08:38:01.189Z,986.316
2022-09-10T08:39:04.020Z,986.36
2022-09-10T08:40:00.523Z,986.3673
2022-09-10T08:41:00.621Z,986.3948
2022-09-10T08:42:00.768Z,986.4366
2022-09-10T08:43:00.913Z,986.4289
2022-09-10T08:44:01.066Z,986.3982
2022-09-10T08:45:01.222Z,986.3691
2022-09-10T08:46:00.390Z,986.3676
2022-09-10T08:47:00.497Z,986.4756
2022-09-10T08:48:00.645Z,986.5338
2022-09-10T08:49:00.797Z,986.4756
2022-09-10T08:50:00.964Z,986.5476
2022-09-10T08:51:01.094Z,986.4089
2022-09-10T08:52:01.234Z,986.4036
2022-09-10T08:53:00.383Z,986.4549
2022-09-10T08:54:00.542Z,986.484
2022-09-10T08:55:00.709Z,986.3331
2022-09-10T08:56:00.850Z,986.3772
2022-09-10T08:57:00.985Z,986.3634
2022-09-10T08:58:01.131Z,986.3646
2022-09-10T08:59:00.283Z,986.3217
2022-09-10T09:00:00.462Z,986.2857
2022-09-10T09:01:00.576Z,986.3504
2022-09-10T09:02:00.826Z,986.3937
2022-09-10T09:03:00.914Z,986.3504
2022-09-10T09:04:05.965Z,986.4975
2022-09-10T09:05:01.201Z,986.4033
2022-09-10T09:06:00.332Z,986.5059
2022-09-10T09:07:00.459Z,986.3535
2022-09-10T09:08:00.614Z,986.4561
2022-09-10T09:09:00.759Z,986.4848
2022-09-10T09:10:00.922Z,986.5208
2022-09-10T09:11:01.081Z,986.4489
2022-09-10T09:12:01.169Z,986.4335
2022-09-10T09:13:00.323Z,986.3688
2022-09-10T09:14:00.471Z,986.2811
2022-09-10T09:15:00.616Z,986.3313
2022-09-10T09:16:00.806Z,986.4393
2022-09-10T09:17:00.916Z,986.2424
2022-09-10T09:18:01.046Z,986.352
2022-09-10T09:19:01.198Z,986.2869
2022-09-10T09:20:00.345Z,986.4393
2022-09-10T09:21:00.504Z,986.5748
2022-09-10T09:22:00.639Z,986.4879
2022-09-10T09:23:00.793Z,986.3998
2022-09-10T09:24:13.219Z,986.463
2022-09-10T09:25:01.115Z,986.5131
2022-09-10T09:26:01.237Z,986.625
2022-09-10T09:27:00.399Z,986.4506
2022-09-10T09:28:00.541Z,986.4422
2022-09-10T09:29:00.685Z,986.4637
2022-09-10T09:30:00.835Z,986.3663
2022-09-10T09:31:01.154Z,986.372
2022-09-10T09:32:01.155Z,986.3789
2022-09-10T09:33:00.287Z,986.3773
2022-09-10T09:34:00.423Z,986.4717
2022-09-10T09:35:00.572Z,986.2956
2022-09-10T09:36:00.717Z,986.3305
2022-09-10T09:37:00.880Z,986.4747
2022-09-10T09:38:01.036Z,986.3289
2022-09-10T09:39:01.159Z,986.3443
2022-09-10T09:40:00.369Z,986.3596
2022-09-10T09:41:00.453Z,986.3013
2022-09-10T09:42:00.600Z,986.4164
2022-09-10T09:43:00.753Z,986.3945
2022-09-10T09:44:00.896Z,986.1958
2022-09-10T09:45:01.043Z,986.3987
2022-09-10T09:46:01.258Z,986.2889
2022-09-10T09:47:00.343Z,986.3
2022-09-10T09:48:00.492Z,986.1967
2022-09-10T09:49:00.639Z,986.1092
2022-09-10T09:50:00.784Z,986.2762
2022-09-10T09:51:00.953Z,986.1526
2022-09-10T09:52:01.083Z,986.2831
2022-09-10T09:53:01.227Z,986.2762
2022-09-10T09:54:34.421Z,986.1676
2022-09-10T09:55:14.234Z,986.1886
2022-09-10T09:56:00.687Z,986.2454
2022-09-10T09:57:00.836Z,986.1733
2022-09-10T09:58:00.964Z,986.0136
2022-09-10T09:59:01.129Z,986.1372
2022-09-10T10:00:01.258Z,986.1944
2022-09-10T10:01:00.406Z,986.0469
2022-09-10T10:02:00.633Z,986.0372
2022-09-10T10:03:00.687Z,986.2014
2022-09-10T10:04:00.837Z,986.1987
2022-09-10T10:05:00.996Z,986.1456
2022-09-10T10:06:01.127Z,986.0584
2022-09-10T10:07:00.267Z,986.0235
2022-09-10T10:08:00.415Z,986.1752
2022-09-10T10:09:00.570Z,986.0734
2022-09-10T10:10:00.725Z,986.0527
2022-09-10T10:11:00.858Z,986.0235
2022-09-10T10:12:01.009Z,986.0235
2022-09-10T10:13:01.143Z,986.06
2022-09-10T10:14:00.294Z,985.9566
2022-09-10T10:15:00.452Z,986.1168
2022-09-10T10:16:00.600Z,986.1306
2022-09-10T10:17:01.128Z,985.9842
2022-09-10T10:18:00.881Z,985.8442
2022-09-10T10:19:01.038Z,985.9091
2022-09-10T10:20:01.204Z,985.8495
2022-09-10T10:21:00.325Z,985.8495
2022-09-10T10:22:00.479Z,985.8495
2022-09-10T10:23:00.633Z,986.0248
2022-09-10T10:24:00.778Z,985.8345
2022-09-10T10:25:00.959Z,985.9079
2022-09-10T10:26:01.079Z,985.8438
2022-09-10T10:27:01.227Z,985.9842
2022-09-10T10:28:00.380Z,985.9416
2022-09-10T10:29:00.519Z,985.9513
2022-09-10T10:30:00.690Z,985.7919
2022-09-10T10:31:00.878Z,985.7692
2022-09-10T10:32:05.479Z,985.7761
2022-09-10T10:33:01.125Z,985.8053
2022-09-10T10:34:00.264Z,985.8775
2022-09-10T10:35:00.406Z,985.8483
2022-09-10T10:36:00.586Z,985.9586
2022-09-10T10:37:00.707Z,985.9809
2022-09-10T10:38:00.854Z,985.886
2022-09-10T10:39:00.995Z,985.8211
2022-09-10T10:40:01.372Z,985.9087
2022-09-10T10:41:00.329Z,985.8211
2022-09-10T10:42:00.445Z,985.8211
2022-09-10T10:43:00.580Z,985.7335
2022-09-10T10:44:00.740Z,985.9087
2022-09-10T10:45:00.898Z,985.9026
2022-09-10T10:46:01.144Z,985.757
2022-09-10T10:47:01.184Z,985.7944
2022-09-10T10:48:00.338Z,985.9026
2022-09-10T10:49:03.572Z,985.7137
2022-09-10T10:50:00.630Z,985.7944
2022-09-10T10:51:00.811Z,985.7137
2022-09-10T10:52:00.926Z,985.5373
2022-09-10T10:53:01.075Z,985.5583
2022-09-10T10:54:01.274Z,985.7315
2022-09-10T10:55:00.393Z,985.6045
2022-09-10T10:56:00.594Z,985.6742
2022-09-10T10:57:00.672Z,985.7079
2022-09-10T10:58:00.814Z,985.7427
2022-09-10T10:59:00.979Z,985.791
2022-09-10T11:00:01.113Z,985.6282
2022-09-10T11:02:00.542Z,985.6424
2022-09-10T11:03:00.508Z,985.7451
2022-09-10T11:04:00.665Z,985.6717
2022-09-10T11:05:00.810Z,985.6854
2022-09-10T11:06:00.962Z,985.6489
2022-09-10T11:07:01.128Z,985.6282
2022-09-10T11:08:01.239Z,985.7017
2022-09-10T11:09:00.388Z,985.7451
2022-09-10T11:10:00.543Z,985.5547
2022-09-10T11:11:00.695Z,985.5835
2022-09-10T11:12:00.873Z,985.6059
2022-09-10T11:13:01.040Z,985.7366
2022-09-10T11:14:01.145Z,985.5251
2022-09-10T11:15:00.295Z,985.627
2022-09-10T11:16:00.475Z,985.575
2022-09-10T11:17:00.601Z,985.5234
2022-09-10T11:18:00.773Z,985.6895
2022-09-10T11:19:00.895Z,985.6895
2022-09-10T11:20:24.644Z,985.4319
2022-09-10T11:21:01.199Z,985.4023
2022-09-10T11:22:00.343Z,985.4888
2022-09-10T11:23:00.489Z,985.4888
2022-09-10T11:24:00.626Z,985.6058
2022-09-10T11:25:00.809Z,985.5473
2022-09-10T11:26:00.910Z,985.4539
2022-09-10T11:27:01.073Z,985.3833
2022-09-10T11:28:01.210Z,985.3129
2022-09-10T11:29:00.354Z,985.3793
2022-09-10T11:30:00.516Z,985.4317
2022-09-10T11:31:00.684Z,985.476
2022-09-10T11:32:00.807Z,985.3172
2022-09-10T11:33:00.951Z,985.5474
2022-09-10T11:34:01.094Z,985.4666
2022-09-10T11:35:01.265Z,985.4516
2022-09-10T11:36:00.378Z,985.2695
2022-09-10T11:37:00.531Z,985.5376
2022-09-10T11:38:00.680Z,985.6533
2022-09-10T11:39:00.834Z,985.4418
2022-09-10T11:40:01.019Z,985.3524
2022-09-10T11:41:01.151Z,985.401
2022-09-10T11:42:00.279Z,985.3855
2022-09-10T11:43:00.429Z,985.2696
2022-09-10T11:44:00.574Z,985.4342
2022-09-10T11:45:00.724Z,985.4704
2022-09-10T11:46:00.957Z,985.3517
2022-09-10T11:47:01.027Z,985.3024
2022-09-10T11:48:01.180Z,985.4244
2022-09-10T11:49:00.323Z,985.2646
2022-09-10T11:50:00.465Z,985.3866
2022-09-10T11:51:00.635Z,985.2926
2022-09-10T11:52:00.786Z,985.2788